createdAt,value
2022-09-15T00:02:03.371Z,4.35
2022-09-15T00:04:30.128Z,3.90
2022-09-15T00:06:56.794Z,3.53
2022-09-15T00:09:23.401Z,3.67
2022-09-15T00:11:50.159Z,4.13
2022-09-15T00:14:16.786Z,3.75
2022-09-15T00:16:43.556Z,3.85
2022-09-15T00:19:10.359Z,3.65
2022-09-15T00:21:40.958Z,4.25
2022-09-15T00:24:09.394Z,3.67
2022-09-15T00:26:36.956Z,4.13
2022-09-15T00:29:04.995Z,4.05
2022-09-15T00:31:32.569Z,4.50
2022-09-15T00:34:02.679Z,4.25
2022-09-15T00:36:29.989Z,4.80
2022-09-15T00:38:57.842Z,3.92
2022-09-15T00:41:25.023Z,4.20
2022-09-15T00:43:58.628Z,5.20
2022-09-15T00:46:40.094Z,3.75
2022-09-15T00:49:18.262Z,3.33
2022-09-15T00:51:54.729Z,3.80
2022-09-15T00:54:29.399Z,3.53
2022-09-15T00:57:00.305Z,3.30
2022-09-15T00:59:30.233Z,3.28
2022-09-15T01:02:08.783Z,3.72
2022-09-15T01:04:35.720Z,3.95
2022-09-15T01:07:05.656Z,4.13
2022-09-15T01:09:45.122Z,5.47
2022-09-15T01:12:11.988Z,4.05
2022-09-15T01:14:38.889Z,3.97
2022-09-15T01:17:20.521Z,3.78
2022-09-15T01:20:06.224Z,3.55
2022-09-15T01:22:42.133Z,4.45
2022-09-15T01:25:27.278Z,4.00
2022-09-15T01:30:37.715Z,3.25
2022-09-15T01:33:30.740Z,3.70
2022-09-15T01:36:04.732Z,3.38
2022-09-15T01:38:56.819Z,3.85
2022-09-15T01:41:40.414Z,3.47
2022-09-15T01:44:10.766Z,3.20
2022-09-15T01:46:41.328Z,4.22
2022-09-15T01:49:12.214Z,3.15
2022-09-15T01:51:40.864Z,3.25
2022-09-15T01:54:08.640Z,3.63
2022-09-15T01:56:37.766Z,2.80
2022-09-15T01:59:05.271Z,2.88
2022-09-15T02:01:40.695Z,3.20
2022-09-15T02:04:38.243Z,2.80
2022-09-15T02:07:32.118Z,3.00
2022-09-15T02:10:13.560Z,2.80
2022-09-15T02:13:06.286Z,2.92
2022-09-15T02:15:48.456Z,3.17
2022-09-15T02:18:34.860Z,3.10
2022-09-15T02:21:11.058Z,2.92
2022-09-15T02:23:43.779Z,2.65
2022-09-15T02:26:17.575Z,2.95
2022-09-15T02:28:46.982Z,2.55
2022-09-15T02:31:17.952Z,2.50
2022-09-15T02:34:17.504Z,3.58
2022-09-15T02:36:45.359Z,2.95
2022-09-15T02:39:17.537Z,2.67
2022-09-15T02:41:44.169Z,2.38
2022-09-15T02:44:10.890Z,3.05
2022-09-15T02:46:39.214Z,2.75
2022-09-15T02:49:06.044Z,2.67
2022-09-15T02:51:32.718Z,2.95
2022-09-15T02:53:59.991Z,2.70
2022-09-15T02:56:26.734Z,2.65
2022-09-15T02:58:53.355Z,2.58
2022-09-15T03:01:20.127Z,2.60
2022-09-15T03:03:47.632Z,3.38
2022-09-15T03:06:17.063Z,2.65
2022-09-15T03:08:58.767Z,2.40
2022-09-15T03:11:27.245Z,2.88
2022-09-15T03:14:02.911Z,2.40
2022-09-15T03:16:31.512Z,2.53
2022-09-15T03:18:59.777Z,2.58
2022-09-15T03:21:29.401Z,2.30
2022-09-15T03:23:57.786Z,2.50
2022-09-15T03:26:25.216Z,2.53
2022-09-15T03:28:51.878Z,1.90
2022-09-15T03:31:19.912Z,2.38
2022-09-15T03:33:47.144Z,2.35
2022-09-15T03:36:13.906Z,2.47
2022-09-15T03:38:40.524Z,2.55
2022-09-15T03:41:11.355Z,2.42
2022-09-15T03:43:38.530Z,2.53
2022-09-15T03:46:06.867Z,2.67
2022-09-15T03:48:35.529Z,2.60
2022-09-15T03:51:05.869Z,2.50
2022-09-15T03:53:34.547Z,2.72
2022-09-15T03:56:13.792Z,2.60
2022-09-15T03:58:40.703Z,2.78
2022-09-15T04:01:07.503Z,2.55
2022-09-15T04:03:37.435Z,2.88
2022-09-15T04:06:07.403Z,3.13
2022-09-15T04:08:34.057Z,3.92
2022-09-15T04:11:05.875Z,2.30
2022-09-15T04:13:32.729Z,3.17
2022-09-15T04:16:10.369Z,2.78
2022-09-15T04:18:37.729Z,2.78
2022-09-15T04:21:07.368Z,2.70
2022-09-15T04:23:34.751Z,2.15
2022-09-15T04:26:07.820Z,2.83
2022-09-15T04:28:37.026Z,2.42
2022-09-15T04:31:12.128Z,2.70
2022-09-15T04:36:12.375Z,3.30
2022-09-15T04:38:39.087Z,3.00
2022-09-15T04:41:06.847Z,3.20
2022-09-15T04:43:33.875Z,3.33
2022-09-15T04:46:00.696Z,3.67
2022-09-15T04:48:28.038Z,4.43
2022-09-15T04:50:54.850Z,3.53
2022-09-15T04:53:21.679Z,4.00
2022-09-15T04:55:48.312Z,3.88
2022-09-15T04:58:14.937Z,3.83
2022-09-15T05:00:45.887Z,3.83
2022-09-15T05:03:14.173Z,3.53
2022-09-15T05:05:41.684Z,4.97
2022-09-15T05:08:08.368Z,3.70
2022-09-15T05:10:35.355Z,4.20
2022-09-15T05:13:02.137Z,4.20
2022-09-15T05:15:28.792Z,3.55
2022-09-15T05:17:55.594Z,3.80
2022-09-15T05:20:22.747Z,4.60
2022-09-15T05:22:49.739Z,4.20
2022-09-15T05:25:16.455Z,3.60
2022-09-15T05:27:43.126Z,3.95
2022-09-15T05:30:35.938Z,4.13
2022-09-15T05:32:57.134Z,3.88
2022-09-15T05:35:23.875Z,3.97
2022-09-15T05:37:50.511Z,3.75
2022-09-15T05:40:17.312Z,3.67
2022-09-15T05:42:43.954Z,4.30
2022-09-15T05:45:11.181Z,4.90
2022-09-15T05:47:37.781Z,4.55
2022-09-15T05:50:04.700Z,4.78
2022-09-15T05:52:31.390Z,5.18
2022-09-15T05:54:59.344Z,4.28
2022-09-15T05:57:26.370Z,4.68
2022-09-15T05:59:52.959Z,3.90
2022-09-15T06:02:19.577Z,4.32
2022-09-15T06:04:46.235Z,3.72
2022-09-15T06:07:13.169Z,4.25
2022-09-15T06:09:40.081Z,3.67
2022-09-15T06:12:06.860Z,4.88
2022-09-15T06:14:33.504Z,5.85
2022-09-15T06:17:00.192Z,5.57
2022-09-15T06:19:26.895Z,5.00
2022-09-15T06:21:53.905Z,4.97
2022-09-15T06:24:20.655Z,4.93
2022-09-15T06:26:47.368Z,4.63
2022-09-15T06:29:14.173Z,5.15
2022-09-15T06:31:40.913Z,4.68
2022-09-15T06:34:08.716Z,5.65
2022-09-15T06:36:37.029Z,5.22
2022-09-15T06:39:03.866Z,6.25
2022-09-15T06:41:47.022Z,6.15
2022-09-15T06:44:17.659Z,5.90
2022-09-15T06:46:46.942Z,5.75
2022-09-15T06:49:14.151Z,5.82
2022-09-15T06:51:40.829Z,6.00
2022-09-15T06:54:07.766Z,3.85
2022-09-15T06:56:38.143Z,3.92
2022-09-15T06:59:05.349Z,3.30
2022-09-15T07:01:32.705Z,3.72
2022-09-15T07:04:01.604Z,3.03
2022-09-15T07:06:30.016Z,2.92
2022-09-15T07:08:58.625Z,3.45
2022-09-15T07:11:26.056Z,2.58
2022-09-15T07:13:53.022Z,2.45
2022-09-15T07:16:20.832Z,2.42
2022-09-15T07:18:49.024Z,2.10
2022-09-15T07:21:18.608Z,2.47
2022-09-15T07:23:46.208Z,2.13
2022-09-15T07:26:15.686Z,2.92
2022-09-15T07:28:44.354Z,2.10
2022-09-15T07:31:13.573Z,2.05
2022-09-15T07:33:40.363Z,2.30
2022-09-15T07:36:08.508Z,2.95
2022-09-15T07:38:38.855Z,2.42
2022-09-15T07:41:07.661Z,2.22
2022-09-15T07:43:34.604Z,2.38
2022-09-15T07:46:02.330Z,2.25
2022-09-15T07:48:30.221Z,2.10
2022-09-15T07:50:57.268Z,2.10
2022-09-15T07:53:24.163Z,2.50
2022-09-15T07:55:54.853Z,2.78
2022-09-15T07:58:22.324Z,2.40
2022-09-15T08:00:49.793Z,2.30
2022-09-15T08:03:16.842Z,2.20
2022-09-15T08:05:45.774Z,2.35
2022-09-15T08:08:12.955Z,1.70
2022-09-15T08:10:41.382Z,1.83
2022-09-15T08:13:08.611Z,2.08
2022-09-15T08:15:37.617Z,2.15
2022-09-15T08:18:05.970Z,1.92
2022-09-15T08:20:33.198Z,1.60
2022-09-15T08:22:59.926Z,2.60
2022-09-15T08:25:26.669Z,2.30
2022-09-15T08:27:55.129Z,2.00
2022-09-15T08:30:22.515Z,2.03
2022-09-15T08:32:50.472Z,1.45
2022-09-15T08:35:18.595Z,2.25
2022-09-15T08:37:46.248Z,1.83
2022-09-15T08:40:30.709Z,2.08
2022-09-15T08:43:05.501Z,1.77
2022-09-15T08:45:45.069Z,2.00
2022-09-15T08:48:15.822Z,1.92
2022-09-15T08:50:47.620Z,2.17
2022-09-15T08:53:24.090Z,2.03
2022-09-15T08:55:54.824Z,1.77
2022-09-15T08:58:39.734Z,2.05
2022-09-15T09:01:23.058Z,1.95
2022-09-15T09:04:33.104Z,1.90
2022-09-15T09:07:15.476Z,2.13
2022-09-15T09:10:07.036Z,2.33
2022-09-15T09:12:59.875Z,2.55
2022-09-15T09:15:51.222Z,2.35
2022-09-15T09:18:36.221Z,2.08
2022-09-15T09:21:02.886Z,2.50
2022-09-15T09:23:43.821Z,2.47
2022-09-15T09:26:13.004Z,2.22
2022-09-15T09:28:53.167Z,2.28
2022-09-15T09:31:23.020Z,1.73
2022-09-15T09:33:55.434Z,1.50
2022-09-15T09:36:22.573Z,1.42
2022-09-15T09:38:50.727Z,2.10
2022-09-15T09:41:23.408Z,2.00
2022-09-15T09:43:52.386Z,1.85
2022-09-15T09:46:20.385Z,1.52
2022-09-15T09:49:17.088Z,1.67
2022-09-15T09:52:00.078Z,2.15
2022-09-15T09:54:31.418Z,2.03
2022-09-15T09:57:23.179Z,1.40
2022-09-15T09:59:50.800Z,1.90
2022-09-15T10:02:21.997Z,1.80
2022-09-15T10:04:53.183Z,1.38
2022-09-15T10:07:24.609Z,1.42
2022-09-15T10:10:02.127Z,2.17
2022-09-15T10:12:32.211Z,1.60
2022-09-15T10:15:02.546Z,2.10
2022-09-15T10:17:44.804Z,1.73
2022-09-15T10:20:38.942Z,2.22
2022-09-15T10:23:27.686Z,1.83
2022-09-15T10:26:00.717Z,1.65
2022-09-15T10:28:28.144Z,1.60
2022-09-15T10:30:59.846Z,2.00
2022-09-15T10:33:29.592Z,1.60
2022-09-15T10:36:04.010Z,1.92
2022-09-15T10:38:42.084Z,1.90
2022-09-15T10:41:08.792Z,1.95
2022-09-15T10:43:35.400Z,1.52
2022-09-15T10:46:09.331Z,1.20
2022-09-15T10:48:49.044Z,1.75
2022-09-15T10:51:36.967Z,1.90
2022-09-15T10:54:24.876Z,1.73
2022-09-15T10:56:58.350Z,2.10
2022-09-15T10:59:32.094Z,1.35
2022-09-15T11:02:01.698Z,1.63
2022-09-15T11:04:43.068Z,1.50
2022-09-15T11:07:33.811Z,1.73
2022-09-15T11:10:03.273Z,1.75
2022-09-15T11:12:56.490Z,1.95
2022-09-15T11:15:31.033Z,1.73
2022-09-15T11:18:12.615Z,1.42
2022-09-15T11:20:54.548Z,1.67
2022-09-15T11:23:29.559Z,1.40
2022-09-15T11:26:22.074Z,1.70
2022-09-15T11:28:57.802Z,1.38
2022-09-15T11:31:34.498Z,1.70
2022-09-15T11:34:11.910Z,2.10
2022-09-15T11:36:48.627Z,1.42
2022-09-15T11:39:30.506Z,2.03
2022-09-15T11:42:18.897Z,1.60
2022-09-15T11:44:48.007Z,2.00
2022-09-15T11:47:36.576Z,1.73
2022-09-15T11:50:20.802Z,2.10
2022-09-15T11:53:02.826Z,2.38
2022-09-15T11:55:55.924Z,2.05
2022-09-15T11:58:53.280Z,1.50
2022-09-15T12:01:24.867Z,1.42
2022-09-15T12:04:03.461Z,1.42
2022-09-15T12:07:14.604Z,2.03
2022-09-15T12:09:41.637Z,1.48
2022-09-15T12:12:16.955Z,1.63
2022-09-15T12:14:49.315Z,1.48
2022-09-15T12:17:38.957Z,1.60
2022-09-15T12:20:17.511Z,1.75
2022-09-15T12:22:53.457Z,1.63
2022-09-15T12:25:26.521Z,1.65
2022-09-15T12:28:24.421Z,1.60
2022-09-15T12:31:13.962Z,1.83
2022-09-15T12:33:45.045Z,2.22
2022-09-15T12:36:45.815Z,1.83
2022-09-15T12:39:38.360Z,1.70
2022-09-15T12:42:12.535Z,1.50
2022-09-15T12:44:54.627Z,1.60
2022-09-15T12:48:10.116Z,2.03
2022-09-15T12:50:41.066Z,1.30
2022-09-15T12:56:08.320Z,1.60
2022-09-15T12:58:51.460Z,1.80
2022-09-15T13:01:27.215Z,1.15
2022-09-15T13:03:55.337Z,1.80
2022-09-15T13:06:23.456Z,2.15
2022-09-15T13:09:02.215Z,1.63
2022-09-15T13:11:37.122Z,1.48
2022-09-15T13:14:03.997Z,1.70
2022-09-15T13:16:46.565Z,2.30
2022-09-15T13:19:25.516Z,2.10
2022-09-15T13:22:10.981Z,1.55
2022-09-15T13:25:13.830Z,1.60
2022-09-15T13:28:01.823Z,1.80
2022-09-15T13:30:52.904Z,1.83
2022-09-15T13:35:02.219Z,1.80
2022-09-15T13:39:31.857Z,1.67
2022-09-15T13:42:42.271Z,1.50
2022-09-15T13:45:27.314Z,1.90
2022-09-15T13:50:37.150Z,2.10
2022-09-15T13:53:30.783Z,1.98
2022-09-15T13:56:06.194Z,1.80
2022-09-15T14:01:23.196Z,1.80
2022-09-15T14:04:05.278Z,1.77
2022-09-15T14:06:45.019Z,1.95
2022-09-15T14:09:27.197Z,2.10
2022-09-15T14:11:58.020Z,1.95
2022-09-15T14:14:27.628Z,2.45
2022-09-15T14:16:55.971Z,1.77
2022-09-15T14:19:32.477Z,2.00
2022-09-15T14:22:00.939Z,1.92
2022-09-15T14:24:30.750Z,1.92
2022-09-15T14:27:00.939Z,2.25
2022-09-15T14:29:28.030Z,2.38
2022-09-15T14:32:00.901Z,1.85
2022-09-15T14:34:31.804Z,2.20
2022-09-15T14:37:07.335Z,1.88
2022-09-15T14:39:37.729Z,2.17
2022-09-15T14:42:22.225Z,1.83
2022-09-15T14:47:39.075Z,2.15
2022-09-15T14:50:22.134Z,1.90
2022-09-15T14:52:51.873Z,2.08
2022-09-15T14:55:33.788Z,2.67
2022-09-15T14:58:11.575Z,2.83
2022-09-15T15:01:00.016Z,2.05
2022-09-15T15:03:51.643Z,2.03
2022-09-15T15:06:30.757Z,2.30
2022-09-15T15:09:09.750Z,2.10
2022-09-15T15:11:39.393Z,2.20
2022-09-15T15:14:08.594Z,1.90
2022-09-15T15:16:35.945Z,2.22
2022-09-15T15:19:02.913Z,2.05
2022-09-15T15:21:35.727Z,2.30
2022-09-15T15:24:17.498Z,1.65
2022-09-15T15:26:46.276Z,2.00
2022-09-15T15:29:41.028Z,2.20
2022-09-15T15:32:13.558Z,2.20
2022-09-15T15:34:40.630Z,2.00
2022-09-15T15:37:23.218Z,2.20
2022-09-15T15:39:50.098Z,2.30
2022-09-15T15:42:17.198Z,2.28
2022-09-15T15:45:09.421Z,2.60
2022-09-15T15:47:37.184Z,2.05
2022-09-15T15:50:16.298Z,2.60
2022-09-15T15:52:44.038Z,2.58
2022-09-15T15:55:39.119Z,2.28
2022-09-15T15:58:05.813Z,2.38
2022-09-15T16:00:40.926Z,2.67
2022-09-15T16:03:08.860Z,2.13
2022-09-15T16:05:35.939Z,2.55
2022-09-15T16:08:30.122Z,2.50
2022-09-15T16:10:57.728Z,2.53
2022-09-15T16:13:25.298Z,2.50
2022-09-15T16:15:57.898Z,2.47
2022-09-15T16:18:25.098Z,3.47
2022-09-15T16:20:52.324Z,3.53
2022-09-15T16:23:22.413Z,3.60
2022-09-15T16:26:04.087Z,2.30
2022-09-15T16:28:30.995Z,3.33
2022-09-15T16:30:58.714Z,2.13
2022-09-15T16:33:26.211Z,2.38
2022-09-15T16:36:07.012Z,2.20
2022-09-15T16:38:36.878Z,2.78
2022-09-15T16:41:06.295Z,2.88
2022-09-15T16:43:32.926Z,2.40
2022-09-15T16:45:59.677Z,2.65
2022-09-15T16:48:27.357Z,2.65
2022-09-15T16:51:20.481Z,2.53
2022-09-15T16:53:41.331Z,2.78
2022-09-15T16:56:11.520Z,2.10
2022-09-15T16:58:38.936Z,2.97
2022-09-15T17:01:06.685Z,2.58
2022-09-15T17:03:34.327Z,3.33
2022-09-15T17:06:02.012Z,2.85
2022-09-15T17:08:32.256Z,2.88
2022-09-15T17:11:02.573Z,2.92
2022-09-15T17:13:31.971Z,3.72
2022-09-15T17:16:00.528Z,4.20
2022-09-15T17:18:28.247Z,4.18
2022-09-15T17:20:55.801Z,5.40
2022-09-15T17:23:35.700Z,4.90
2022-09-15T17:26:05.470Z,5.05
2022-09-15T17:28:34.826Z,4.68
2022-09-15T17:31:11.917Z,4.95
2022-09-15T17:33:39.554Z,4.75
2022-09-15T17:36:06.990Z,5.45
2022-09-15T17:38:34.569Z,4.97
2022-09-15T17:41:01.375Z,5.32
2022-09-15T17:43:30.381Z,5.22
2022-09-15T17:45:57.173Z,4.80
2022-09-15T17:48:24.826Z,4.63
2022-09-15T17:50:52.365Z,6.25
2022-09-15T17:53:21.484Z,8.85
2022-09-15T17:55:49.422Z,9.95
2022-09-15T17:58:16.958Z,7.15
2022-09-15T18:00:44.931Z,5.22
2022-09-15T18:03:28.075Z,5.95
2022-09-15T18:05:56.836Z,6.00
2022-09-15T18:08:23.577Z,6.18
2022-09-15T18:10:50.831Z,5.25
2022-09-15T18:13:20.786Z,4.95
2022-09-15T18:15:49.071Z,5.50
2022-09-15T18:18:24.744Z,4.93
2022-09-15T18:20:53.341Z,5.60
2022-09-15T18:23:22.649Z,5.60
2022-09-15T18:25:50.364Z,5.05
2022-09-15T18:28:18.702Z,5.18
2022-09-15T18:30:48.123Z,4.40
2022-09-15T18:33:16.818Z,4.13
2022-09-15T18:35:43.924Z,4.45
2022-09-15T18:38:11.460Z,5.38
2022-09-15T18:40:38.564Z,6.38
2022-09-15T18:43:05.706Z,5.68
2022-09-15T18:45:32.464Z,4.25
2022-09-15T18:47:59.288Z,4.68
2022-09-15T18:50:26.008Z,3.88
2022-09-15T18:52:53.207Z,7.28
2022-09-15T18:55:21.952Z,6.50
2022-09-15T18:57:49.443Z,13.80
2022-09-15T19:00:23.076Z,8.15
2022-09-15T19:02:55.551Z,5.53
2022-09-15T19:05:22.183Z,4.20
2022-09-15T19:07:49.089Z,4.75
2022-09-15T19:10:17.465Z,4.63
2022-09-15T19:12:44.666Z,5.00
2022-09-15T19:15:13.768Z,5.07
2022-09-15T19:17:41.906Z,5.25
2022-09-15T19:20:11.376Z,5.03
2022-09-15T19:22:38.427Z,3.80
2022-09-15T19:25:06.559Z,3.58
2022-09-15T19:27:33.421Z,3.35
2022-09-15T19:30:00.499Z,3.63
2022-09-15T19:32:27.712Z,3.75
2022-09-15T19:34:54.520Z,3.92
2022-09-15T19:37:22.194Z,4.03
2022-09-15T19:39:49.583Z,3.83
2022-09-15T19:42:16.892Z,4.25
2022-09-15T19:44:43.827Z,4.32
2022-09-15T19:47:10.825Z,3.92
2022-09-15T19:49:37.727Z,3.92
2022-09-15T19:52:06.495Z,3.50
2022-09-15T19:54:34.659Z,3.15
2022-09-15T19:57:02.142Z,3.70
2022-09-15T19:59:31.374Z,4.30
2022-09-15T20:01:59.263Z,3.90
2022-09-15T20:04:26.164Z,4.05
2022-09-15T20:06:52.838Z,3.95
2022-09-15T20:09:19.507Z,3.47
2022-09-15T20:11:46.217Z,3.72
2022-09-15T20:14:13.670Z,4.25
2022-09-15T20:16:40.735Z,3.85
2022-09-15T20:19:07.678Z,3.97
2022-09-15T20:21:52.260Z,3.90
2022-09-15T20:24:19.779Z,3.42
2022-09-15T20:26:46.523Z,3.70
2022-09-15T20:29:13.755Z,3.40
2022-09-15T20:31:40.838Z,3.90
2022-09-15T20:34:07.672Z,3.92
2022-09-15T20:36:36.782Z,3.80
2022-09-15T20:39:05.874Z,4.03
2022-09-15T20:41:32.526Z,3.90
2022-09-15T20:44:00.301Z,3.08
2022-09-15T20:46:31.604Z,3.63
2022-09-15T20:48:58.344Z,3.83
2022-09-15T20:51:27.982Z,4.45
2022-09-15T20:53:56.785Z,3.67
2022-09-15T20:56:28.540Z,4.40
2022-09-15T20:58:58.510Z,4.20
2022-09-15T21:01:32.505Z,3.33
2022-09-15T21:03:59.414Z,3.37
2022-09-15T21:06:27.648Z,3.83
2022-09-15T21:08:56.163Z,4.38
2022-09-15T21:11:24.149Z,4.47
2022-09-15T21:13:51.148Z,4.20
2022-09-15T21:16:22.107Z,5.30
2022-09-15T21:18:50.507Z,5.47
2022-09-15T21:21:20.487Z,4.85
2022-09-15T21:24:03.861Z,4.95
2022-09-15T21:26:59.211Z,5.78
2022-09-15T21:29:27.728Z,5.63
2022-09-15T21:31:55.875Z,5.13
2022-09-15T21:34:22.719Z,5.80
2022-09-15T21:36:51.861Z,4.05
2022-09-15T21:39:18.539Z,4.50
2022-09-15T21:41:45.295Z,4.47
2022-09-15T21:44:11.970Z,4.63
2022-09-15T21:46:38.583Z,8.25
2022-09-15T21:49:05.756Z,6.03
2022-09-15T21:51:32.979Z,5.10
2022-09-15T21:54:00.677Z,5.30
2022-09-15T21:56:28.835Z,4.63
2022-09-15T21:58:55.760Z,5.55
2022-09-15T22:01:25.407Z,5.20
2022-09-15T22:03:56.644Z,4.80
2022-09-15T22:06:33.296Z,4.30
2022-09-15T22:09:01.686Z,4.43
2022-09-15T22:11:28.834Z,3.70
2022-09-15T22:13:55.867Z,3.83
2022-09-15T22:16:24.369Z,3.47
2022-09-15T22:18:52.039Z,3.83
2022-09-15T22:21:27.852Z,4.20
2022-09-15T22:23:56.463Z,4.65
2022-09-15T22:26:28.704Z,4.05
2022-09-15T22:28:56.122Z,3.83
2022-09-15T22:31:24.362Z,3.88
2022-09-15T22:33:51.277Z,3.72
2022-09-15T22:36:30.332Z,3.83
2022-09-15T22:39:05.273Z,3.67
2022-09-15T22:41:38.465Z,4.05
2022-09-15T22:44:06.653Z,3.88
2022-09-15T22:46:33.448Z,3.47
2022-09-15T22:49:00.223Z,3.63
2022-09-15T22:51:26.931Z,4.38
2022-09-15T22:53:54.894Z,4.38
2022-09-15T22:56:21.638Z,4.20
2022-09-15T22:58:49.550Z,3.90
2022-09-15T23:01:22.252Z,4.13
2022-09-15T23:03:54.428Z,4.35
2022-09-15T23:06:21.509Z,3.78
2022-09-15T23:08:52.986Z,4.28
2022-09-15T23:11:21.083Z,3.95
2022-09-15T23:13:48.217Z,4.00
2022-09-15T23:16:17.755Z,3.88
2022-09-15T23:18:44.989Z,4.25
2022-09-15T23:21:12.897Z,3.67
2022-09-15T23:23:41.676Z,3.72
2022-09-15T23:26:10.376Z,4.10
2022-09-15T23:28:39.261Z,4.72
2022-09-15T23:31:07.590Z,3.42
2022-09-15T23:33:34.811Z,3.95
2022-09-15T23:36:03.790Z,4.40
2022-09-15T23:38:31.371Z,3.83
2022-09-15T23:40:58.097Z,3.83
2022-09-15T23:43:24.826Z,4.05
2022-09-15T23:45:51.752Z,4.55
2022-09-15T23:48:18.715Z,4.32
2022-09-15T23:50:45.631Z,4.53
2022-09-15T23:53:12.868Z,3.95
2022-09-15T23:55:39.704Z,3.97
2022-09-15T23:58:06.509Z,4.30
